Montpelier, IA (52759)

5:12 PM CDT on October 31, 2014 (GMT -0500)
West Central Davenport | Change Station
CLOSE
Current Station
Personal Weather Station
Location: Davenport, IA
Elevation: 704 ft
Nearby Weather Stations

Elev 704 ft 41.53 °N, 90.61 °W | Updated 8 seconds ago

Clear
Clear
41.5 °F
Feels Like 38 °F
N
5.2
Wind Variable Wind from NW
Gusts 8.8 mph

Today
High -- | Low -- °F
--% Chance of Precip.
Yesterday
High -- | Low -- °F
Precip. -- in
7:33 AM 5:59 PM
First Quarter, 59% visible
Pressure 30.39 in
Visibility 10.0 miles
Clouds Few 5500 ft
Windchill 38 °F
Dew Point 2 °F
Humidity 19%
Rainfall 0.00 in
Snow Depth Not available.
UV 0 out of 12
Pollen .40 out of 12
Air Quality Not available.
Flu Activity Not available.
METAR KDVN 312152Z AUTO 36016KT 10SM FEW055 05/M08 A3037 RMK AO2 PK WND 35030/2103 SLP291 T00501083 TSNO

More Conditions Fewer Conditions

Pressure 30.39 in
Visibility 10.0 miles
Clouds Few 5500 ft
Windchill 38 °F
Dew Point 2 °F
Humidity 19%
Rainfall 0.00 in
Snow Depth Not available.
UV 0 out of 12
Pollen .40 out of 12
Air Quality Not available.
Flu Activity Not available.
METAR KDVN 312152Z AUTO 36016KT 10SM FEW055 05/M08 A3037 RMK AO2 PK WND 35030/2103 SLP291 T00501083 TSNO

More Conditions Fewer Conditions

10-Day Weather Forecast

Almanac

Astronomy

Oct. 31, 2014 Rise Set
Actual Time
Civil Twilight
Nautical Twilight
Astronomical Twilight
Moon
Length of Visible Light
Length of Day
Tomorrow will be .
, % of the Moon is Illuminated

Today's Extremes

State Highs State Lows

Community

WunderPhotos

Upload Photos

1,766,757 photos uploaded!

WunderBlogs® & News

Nearby

Air Quality

  Air Quality AQ Index Pollutant
Not available.

Snow Depth

Station Depth Elevation

Earthquake Activity

City Distance Mag. Time & Date
Minimum magnitude displayed is 2.5.

Coastal Water Temperatures

Place Temperature

Nearby Weather Stations